sensor_id;sensor_type;location;lat;lon;timestamp;P1;durP1;ratioP1;P2;durP2;ratioP2
37288;SDS011;23174;49.462;11.000;2023-03-26T00:01:56;1.98;;;0.93;;
37288;SDS011;23174;49.462;11.000;2023-03-26T00:03:57;1.70;;;0.90;;
37288;SDS011;23174;49.462;11.000;2023-03-26T00:08:07;1.73;;;0.82;;
37288;SDS011;23174;49.462;11.000;2023-03-26T00:10:08;2.55;;;1.00;;
37288;SDS011;23174;49.462;11.000;2023-03-26T00:12:09;2.25;;;0.98;;
37288;SDS011;23174;49.462;11.000;2023-03-26T00:14:10;4.47;;;0.80;;
37288;SDS011;23174;49.462;11.000;2023-03-26T00:16:13;2.10;;;1.02;;
37288;SDS011;23174;49.462;11.000;2023-03-26T00:18:16;3.20;;;1.20;;
37288;SDS011;23174;49.462;11.000;2023-03-26T00:20:19;2.67;;;1.40;;
37288;SDS011;23174;49.462;11.000;2023-03-26T00:22:19;3.28;;;0.95;;
37288;SDS011;23174;49.462;11.000;2023-03-26T00:24:22;2.70;;;1.17;;
37288;SDS011;23174;49.462;11.000;2023-03-26T00:26:28;3.17;;;1.05;;
37288;SDS011;23174;49.462;11.000;2023-03-26T00:28:30;4.32;;;1.33;;
37288;SDS011;23174;49.462;11.000;2023-03-26T00:30:31;2.22;;;0.80;;
37288;SDS011;23174;49.462;11.000;2023-03-26T00:32:34;2.63;;;1.00;;
37288;SDS011;23174;49.462;11.000;2023-03-26T00:34:35;1.92;;;0.90;;
37288;SDS011;23174;49.462;11.000;2023-03-26T00:36:35;4.30;;;0.90;;
37288;SDS011;23174;49.462;11.000;2023-03-26T00:38:36;2.05;;;1.33;;
37288;SDS011;23174;49.462;11.000;2023-03-26T00:40:38;3.00;;;0.75;;
37288;SDS011;23174;49.462;11.000;2023-03-26T00:42:43;1.83;;;0.93;;
37288;SDS011;23174;49.462;11.000;2023-03-26T00:44:43;1.05;;;0.95;;
37288;SDS011;23174;49.462;11.000;2023-03-26T00:46:44;2.88;;;1.20;;
37288;SDS011;23174;49.462;11.000;2023-03-26T00:48:45;1.75;;;0.85;;
37288;SDS011;23174;49.462;11.000;2023-03-26T00:50:46;2.33;;;0.90;;
37288;SDS011;23174;49.462;11.000;2023-03-26T00:52:48;2.65;;;0.93;;
37288;SDS011;23174;49.462;11.000;2023-03-26T00:54:50;1.70;;;1.15;;
37288;SDS011;23174;49.462;11.000;2023-03-26T00:56:51;1.85;;;1.23;;
37288;SDS011;23174;49.462;11.000;2023-03-26T00:58:54;1.80;;;1.10;;
37288;SDS011;23174;49.462;11.000;2023-03-26T01:00:56;3.05;;;1.63;;
37288;SDS011;23174;49.462;11.000;2023-03-26T01:02:59;1.40;;;0.82;;
37288;SDS011;23174;49.462;11.000;2023-03-26T01:05:29;4.97;;;1.30;;
37288;SDS011;23174;49.462;11.000;2023-03-26T01:07:33;2.45;;;1.10;;
37288;SDS011;23174;49.462;11.000;2023-03-26T01:09:35;5.38;;;1.77;;
37288;SDS011;23174;49.462;11.000;2023-03-26T01:11:41;2.63;;;1.23;;
37288;SDS011;23174;49.462;11.000;2023-03-26T01:13:46;2.38;;;1.08;;
37288;SDS011;23174;49.462;11.000;2023-03-26T01:15:50;2.85;;;0.93;;
37288;SDS011;23174;49.462;11.000;2023-03-26T01:17:51;1.30;;;0.98;;
37288;SDS011;23174;49.462;11.000;2023-03-26T01:19:58;3.28;;;1.25;;
37288;SDS011;23174;49.462;11.000;2023-03-26T01:22:21;2.83;;;1.08;;
37288;SDS011;23174;49.462;11.000;2023-03-26T01:24:26;1.83;;;0.90;;
37288;SDS011;23174;49.462;11.000;2023-03-26T01:28:39;3.78;;;1.30;;
37288;SDS011;23174;49.462;11.000;2023-03-26T01:33:36;1.98;;;0.95;;
37288;SDS011;23174;49.462;11.000;2023-03-26T01:35:20;5.07;;;1.30;;
37288;SDS011;23174;49.462;11.000;2023-03-26T01:40:15;3.35;;;1.65;;
37288;SDS011;23174;49.462;11.000;2023-03-26T01:42:27;7.28;;;1.65;;
37288;SDS011;23174;49.462;11.000;2023-03-26T01:44:40;2.88;;;1.50;;
37288;SDS011;23174;49.462;11.000;2023-03-26T01:46:49;2.58;;;1.05;;
37288;SDS011;23174;49.462;11.000;2023-03-26T01:48:51;3.42;;;1.40;;
37288;SDS011;23174;49.462;11.000;2023-03-26T01:50:52;3.00;;;1.42;;
37288;SDS011;23174;49.462;11.000;2023-03-26T01:52:55;2.65;;;1.05;;
37288;SDS011;23174;49.462;11.000;2023-03-26T01:54:55;4.53;;;1.65;;
37288;SDS011;23174;49.462;11.000;2023-03-26T01:57:12;2.90;;;1.33;;
37288;SDS011;23174;49.462;11.000;2023-03-26T02:01:42;4.65;;;1.42;;
37288;SDS011;23174;49.462;11.000;2023-03-26T02:03:52;4.22;;;1.65;;
37288;SDS011;23174;49.462;11.000;2023-03-26T02:06:12;6.20;;;1.52;;
37288;SDS011;23174;49.462;11.000;2023-03-26T02:08:20;2.95;;;1.50;;
37288;SDS011;23174;49.462;11.000;2023-03-26T02:10:44;3.10;;;1.75;;
37288;SDS011;23174;49.462;11.000;2023-03-26T02:12:46;2.10;;;1.42;;
37288;SDS011;23174;49.462;11.000;2023-03-26T02:14:48;3.85;;;1.30;;
37288;SDS011;23174;49.462;11.000;2023-03-26T02:16:50;3.55;;;1.48;;
37288;SDS011;23174;49.462;11.000;2023-03-26T02:18:50;8.00;;;1.55;;
37288;SDS011;23174;49.462;11.000;2023-03-26T02:20:54;3.17;;;1.33;;
37288;SDS011;23174;49.462;11.000;2023-03-26T02:22:56;2.92;;;1.30;;
37288;SDS011;23174;49.462;11.000;2023-03-26T02:24:56;2.55;;;1.10;;
37288;SDS011;23174;49.462;11.000;2023-03-26T02:26:57;3.90;;;1.38;;
37288;SDS011;23174;49.462;11.000;2023-03-26T02:29:01;1.88;;;0.95;;
37288;SDS011;23174;49.462;11.000;2023-03-26T02:31:02;3.78;;;1.75;;
37288;SDS011;23174;49.462;11.000;2023-03-26T02:33:03;3.65;;;1.40;;
37288;SDS011;23174;49.462;11.000;2023-03-26T02:35:04;8.05;;;1.52;;
37288;SDS011;23174;49.462;11.000;2023-03-26T02:37:05;3.88;;;1.40;;
37288;SDS011;23174;49.462;11.000;2023-03-26T02:39:06;4.03;;;1.30;;
37288;SDS011;23174;49.462;11.000;2023-03-26T02:41:07;4.18;;;1.30;;
37288;SDS011;23174;49.462;11.000;2023-03-26T02:43:08;4.95;;;1.48;;
37288;SDS011;23174;49.462;11.000;2023-03-26T02:45:09;2.65;;;1.23;;
37288;SDS011;23174;49.462;11.000;2023-03-26T02:47:09;5.32;;;1.50;;
37288;SDS011;23174;49.462;11.000;2023-03-26T02:49:10;2.80;;;1.20;;
37288;SDS011;23174;49.462;11.000;2023-03-26T02:51:11;3.75;;;1.92;;
37288;SDS011;23174;49.462;11.000;2023-03-26T02:53:11;4.63;;;1.63;;
37288;SDS011;23174;49.462;11.000;2023-03-26T02:55:12;4.72;;;1.42;;
37288;SDS011;23174;49.462;11.000;2023-03-26T02:57:13;2.63;;;1.35;;
37288;SDS011;23174;49.462;11.000;2023-03-26T02:59:13;3.60;;;1.35;;
37288;SDS011;23174;49.462;11.000;2023-03-26T03:01:14;2.95;;;1.50;;
37288;SDS011;23174;49.462;11.000;2023-03-26T03:03:17;3.38;;;1.30;;
37288;SDS011;23174;49.462;11.000;2023-03-26T03:05:17;4.07;;;1.85;;
37288;SDS011;23174;49.462;11.000;2023-03-26T03:07:18;5.25;;;1.80;;
37288;SDS011;23174;49.462;11.000;2023-03-26T03:09:19;4.32;;;1.80;;
37288;SDS011;23174;49.462;11.000;2023-03-26T03:11:20;3.08;;;1.63;;
37288;SDS011;23174;49.462;11.000;2023-03-26T03:13:21;3.60;;;1.45;;
37288;SDS011;23174;49.462;11.000;2023-03-26T03:15:21;3.65;;;1.42;;
37288;SDS011;23174;49.462;11.000;2023-03-26T03:17:22;6.32;;;1.35;;
37288;SDS011;23174;49.462;11.000;2023-03-26T03:19:23;2.72;;;1.52;;
37288;SDS011;23174;49.462;11.000;2023-03-26T03:21:25;2.67;;;1.25;;
37288;SDS011;23174;49.462;11.000;2023-03-26T03:23:27;4.43;;;1.52;;
37288;SDS011;23174;49.462;11.000;2023-03-26T03:25:28;3.85;;;1.52;;
37288;SDS011;23174;49.462;11.000;2023-03-26T03:27:28;3.00;;;1.40;;
37288;SDS011;23174;49.462;11.000;2023-03-26T03:29:29;4.60;;;1.83;;
37288;SDS011;23174;49.462;11.000;2023-03-26T03:31:30;3.58;;;1.60;;
37288;SDS011;23174;49.462;11.000;2023-03-26T03:33:30;5.38;;;1.42;;
37288;SDS011;23174;49.462;11.000;2023-03-26T03:35:31;4.18;;;1.52;;
37288;SDS011;23174;49.462;11.000;2023-03-26T03:37:32;5.07;;;2.70;;
37288;SDS011;23174;49.462;11.000;2023-03-26T03:39:33;3.22;;;1.35;;
37288;SDS011;23174;49.462;11.000;2023-03-26T03:41:33;4.93;;;1.65;;
37288;SDS011;23174;49.462;11.000;2023-03-26T03:43:34;6.78;;;2.13;;
37288;SDS011;23174;49.462;11.000;2023-03-26T03:45:34;3.80;;;1.77;;
37288;SDS011;23174;49.462;11.000;2023-03-26T03:47:35;3.10;;;1.50;;
37288;SDS011;23174;49.462;11.000;2023-03-26T03:49:36;4.13;;;1.42;;
37288;SDS011;23174;49.462;11.000;2023-03-26T03:51:36;4.40;;;1.20;;
37288;SDS011;23174;49.462;11.000;2023-03-26T03:53:37;4.40;;;1.55;;
37288;SDS011;23174;49.462;11.000;2023-03-26T03:55:39;3.25;;;1.55;;
37288;SDS011;23174;49.462;11.000;2023-03-26T03:57:40;5.18;;;1.83;;
37288;SDS011;23174;49.462;11.000;2023-03-26T03:59:41;3.67;;;1.67;;
37288;SDS011;23174;49.462;11.000;2023-03-26T04:01:42;2.72;;;1.38;;
37288;SDS011;23174;49.462;11.000;2023-03-26T04:03:45;4.72;;;1.45;;
37288;SDS011;23174;49.462;11.000;2023-03-26T04:05:46;3.33;;;1.48;;
37288;SDS011;23174;49.462;11.000;2023-03-26T04:07:53;5.45;;;1.20;;
37288;SDS011;23174;49.462;11.000;2023-03-26T04:09:54;2.42;;;1.13;;
37288;SDS011;23174;49.462;11.000;2023-03-26T04:11:55;3.40;;;1.50;;
37288;SDS011;23174;49.462;11.000;2023-03-26T04:13:55;1.83;;;1.10;;
37288;SDS011;23174;49.462;11.000;2023-03-26T04:15:56;3.65;;;1.67;;
37288;SDS011;23174;49.462;11.000;2023-03-26T04:17:56;2.15;;;1.50;;
37288;SDS011;23174;49.462;11.000;2023-03-26T04:19:57;4.10;;;1.52;;
37288;SDS011;23174;49.462;11.000;2023-03-26T04:22:06;3.75;;;1.33;;
37288;SDS011;23174;49.462;11.000;2023-03-26T04:24:06;4.65;;;1.77;;
37288;SDS011;23174;49.462;11.000;2023-03-26T04:26:09;4.28;;;1.15;;
37288;SDS011;23174;49.462;11.000;2023-03-26T04:28:24;3.75;;;1.50;;
37288;SDS011;23174;49.462;11.000;2023-03-26T04:30:27;2.35;;;1.30;;
37288;SDS011;23174;49.462;11.000;2023-03-26T04:32:28;5.35;;;1.80;;
37288;SDS011;23174;49.462;11.000;2023-03-26T04:34:33;5.15;;;1.83;;
37288;SDS011;23174;49.462;11.000;2023-03-26T04:36:33;2.78;;;1.20;;
37288;SDS011;23174;49.462;11.000;2023-03-26T04:38:38;6.18;;;1.60;;
37288;SDS011;23174;49.462;11.000;2023-03-26T04:40:43;3.47;;;1.25;;
37288;SDS011;23174;49.462;11.000;2023-03-26T04:42:47;2.63;;;1.23;;
37288;SDS011;23174;49.462;11.000;2023-03-26T04:44:48;3.28;;;1.95;;
37288;SDS011;23174;49.462;11.000;2023-03-26T04:46:49;2.17;;;1.23;;
37288;SDS011;23174;49.462;11.000;2023-03-26T04:48:54;2.97;;;1.30;;
37288;SDS011;23174;49.462;11.000;2023-03-26T04:50:55;3.25;;;1.52;;
37288;SDS011;23174;49.462;11.000;2023-03-26T04:52:56;3.47;;;1.38;;
37288;SDS011;23174;49.462;11.000;2023-03-26T04:54:57;3.42;;;1.50;;
37288;SDS011;23174;49.462;11.000;2023-03-26T04:56:58;3.67;;;1.38;;
37288;SDS011;23174;49.462;11.000;2023-03-26T04:59:01;5.40;;;1.38;;
37288;SDS011;23174;49.462;11.000;2023-03-26T05:01:02;3.67;;;1.60;;
37288;SDS011;23174;49.462;11.000;2023-03-26T05:03:04;5.10;;;1.58;;
37288;SDS011;23174;49.462;11.000;2023-03-26T05:05:05;3.38;;;1.27;;
37288;SDS011;23174;49.462;11.000;2023-03-26T05:07:06;3.85;;;1.73;;
37288;SDS011;23174;49.462;11.000;2023-03-26T05:09:06;3.53;;;1.58;;
37288;SDS011;23174;49.462;11.000;2023-03-26T05:11:09;3.65;;;1.52;;
37288;SDS011;23174;49.462;11.000;2023-03-26T05:13:10;2.78;;;1.23;;
37288;SDS011;23174;49.462;11.000;2023-03-26T05:15:11;3.22;;;1.38;;
37288;SDS011;23174;49.462;11.000;2023-03-26T05:17:13;2.85;;;1.45;;
37288;SDS011;23174;49.462;11.000;2023-03-26T05:19:17;3.42;;;1.60;;
37288;SDS011;23174;49.462;11.000;2023-03-26T05:21:18;4.30;;;1.55;;
37288;SDS011;23174;49.462;11.000;2023-03-26T05:23:19;5.28;;;1.75;;
37288;SDS011;23174;49.462;11.000;2023-03-26T05:25:20;4.40;;;1.58;;
37288;SDS011;23174;49.462;11.000;2023-03-26T05:27:21;3.70;;;1.67;;
37288;SDS011;23174;49.462;11.000;2023-03-26T05:29:21;3.72;;;1.35;;
37288;SDS011;23174;49.462;11.000;2023-03-26T05:31:23;1.80;;;1.10;;
37288;SDS011;23174;49.462;11.000;2023-03-26T05:33:26;4.03;;;1.50;;
37288;SDS011;23174;49.462;11.000;2023-03-26T05:35:26;2.50;;;1.35;;
37288;SDS011;23174;49.462;11.000;2023-03-26T05:37:27;3.40;;;1.67;;
37288;SDS011;23174;49.462;11.000;2023-03-26T05:39:30;2.95;;;1.70;;
37288;SDS011;23174;49.462;11.000;2023-03-26T05:41:30;2.75;;;1.45;;
37288;SDS011;23174;49.462;11.000;2023-03-26T05:43:31;3.17;;;1.08;;
37288;SDS011;23174;49.462;11.000;2023-03-26T05:45:32;3.42;;;1.42;;
37288;SDS011;23174;49.462;11.000;2023-03-26T05:47:32;2.97;;;1.27;;
37288;SDS011;23174;49.462;11.000;2023-03-26T05:49:33;6.15;;;1.30;;
37288;SDS011;23174;49.462;11.000;2023-03-26T05:51:33;2.33;;;1.30;;
37288;SDS011;23174;49.462;11.000;2023-03-26T05:53:34;2.70;;;1.27;;
37288;SDS011;23174;49.462;11.000;2023-03-26T05:55:35;3.13;;;1.30;;
37288;SDS011;23174;49.462;11.000;2023-03-26T05:57:35;2.60;;;1.60;;
37288;SDS011;23174;49.462;11.000;2023-03-26T05:59:36;3.60;;;1.10;;
37288;SDS011;23174;49.462;11.000;2023-03-26T06:01:37;2.65;;;1.42;;
37288;SDS011;23174;49.462;11.000;2023-03-26T06:03:38;2.92;;;1.60;;
37288;SDS011;23174;49.462;11.000;2023-03-26T06:05:39;2.08;;;1.38;;
37288;SDS011;23174;49.462;11.000;2023-03-26T06:07:39;2.58;;;1.33;;
37288;SDS011;23174;49.462;11.000;2023-03-26T06:09:40;4.82;;;1.35;;
37288;SDS011;23174;49.462;11.000;2023-03-26T06:11:41;4.50;;;1.50;;
37288;SDS011;23174;49.462;11.000;2023-03-26T06:13:41;2.83;;;1.33;;
37288;SDS011;23174;49.462;11.000;2023-03-26T06:15:46;4.28;;;1.50;;
37288;SDS011;23174;49.462;11.000;2023-03-26T06:17:46;3.45;;;1.90;;
37288;SDS011;23174;49.462;11.000;2023-03-26T06:19:47;2.75;;;1.27;;
37288;SDS011;23174;49.462;11.000;2023-03-26T06:21:48;2.63;;;1.38;;
37288;SDS011;23174;49.462;11.000;2023-03-26T06:23:49;1.90;;;1.00;;
37288;SDS011;23174;49.462;11.000;2023-03-26T06:25:50;4.75;;;1.55;;
37288;SDS011;23174;49.462;11.000;2023-03-26T06:27:51;2.85;;;1.50;;
37288;SDS011;23174;49.462;11.000;2023-03-26T06:29:52;4.65;;;1.73;;
37288;SDS011;23174;49.462;11.000;2023-03-26T06:31:52;2.30;;;1.25;;
37288;SDS011;23174;49.462;11.000;2023-03-26T06:33:53;3.05;;;1.40;;
37288;SDS011;23174;49.462;11.000;2023-03-26T06:35:53;2.75;;;1.60;;
37288;SDS011;23174;49.462;11.000;2023-03-26T06:37:55;2.63;;;1.40;;
37288;SDS011;23174;49.462;11.000;2023-03-26T06:39:55;2.85;;;1.38;;
37288;SDS011;23174;49.462;11.000;2023-03-26T06:41:56;4.05;;;1.60;;
37288;SDS011;23174;49.462;11.000;2023-03-26T06:43:57;5.05;;;1.52;;
37288;SDS011;23174;49.462;11.000;2023-03-26T06:45:57;5.07;;;1.80;;
37288;SDS011;23174;49.462;11.000;2023-03-26T06:48:01;5.18;;;1.90;;
37288;SDS011;23174;49.462;11.000;2023-03-26T06:50:02;3.42;;;1.77;;
37288;SDS011;23174;49.462;11.000;2023-03-26T06:52:03;5.03;;;1.80;;
37288;SDS011;23174;49.462;11.000;2023-03-26T06:54:04;3.85;;;1.80;;
37288;SDS011;23174;49.462;11.000;2023-03-26T06:56:05;2.28;;;1.40;;
37288;SDS011;23174;49.462;11.000;2023-03-26T06:58:06;2.30;;;1.33;;
37288;SDS011;23174;49.462;11.000;2023-03-26T07:00:07;5.15;;;1.48;;
37288;SDS011;23174;49.462;11.000;2023-03-26T07:02:08;4.90;;;1.50;;
37288;SDS011;23174;49.462;11.000;2023-03-26T07:04:10;5.30;;;1.80;;
37288;SDS011;23174;49.462;11.000;2023-03-26T07:06:11;3.65;;;1.48;;
37288;SDS011;23174;49.462;11.000;2023-03-26T07:08:11;4.47;;;1.25;;
37288;SDS011;23174;49.462;11.000;2023-03-26T07:10:12;1.63;;;1.00;;
37288;SDS011;23174;49.462;11.000;2023-03-26T07:12:13;4.00;;;1.20;;
37288;SDS011;23174;49.462;11.000;2023-03-26T07:14:14;3.30;;;1.40;;
37288;SDS011;23174;49.462;11.000;2023-03-26T07:16:15;5.03;;;1.42;;
37288;SDS011;23174;49.462;11.000;2023-03-26T07:18:15;4.15;;;1.08;;
37288;SDS011;23174;49.462;11.000;2023-03-26T07:20:16;3.20;;;1.17;;
37288;SDS011;23174;49.462;11.000;2023-03-26T07:22:21;2.60;;;1.58;;
37288;SDS011;23174;49.462;11.000;2023-03-26T07:24:23;3.58;;;2.03;;
37288;SDS011;23174;49.462;11.000;2023-03-26T07:26:25;2.92;;;1.38;;
37288;SDS011;23174;49.462;11.000;2023-03-26T07:28:47;4.00;;;1.55;;
37288;SDS011;23174;49.462;11.000;2023-03-26T07:30:59;6.32;;;1.63;;
37288;SDS011;23174;49.462;11.000;2023-03-26T07:33:22;4.20;;;1.63;;
37288;SDS011;23174;49.462;11.000;2023-03-26T07:35:31;4.45;;;1.60;;
37288;SDS011;23174;49.462;11.000;2023-03-26T07:37:47;4.78;;;1.50;;
37288;SDS011;23174;49.462;11.000;2023-03-26T07:43:02;3.20;;;1.42;;
37288;SDS011;23174;49.462;11.000;2023-03-26T07:47:29;2.25;;;1.30;;
37288;SDS011;23174;49.462;11.000;2023-03-26T07:49:33;4.60;;;1.90;;
37288;SDS011;23174;49.462;11.000;2023-03-26T07:51:34;3.17;;;1.85;;
37288;SDS011;23174;49.462;11.000;2023-03-26T07:53:35;4.25;;;1.80;;
37288;SDS011;23174;49.462;11.000;2023-03-26T07:55:37;3.83;;;2.08;;
37288;SDS011;23174;49.462;11.000;2023-03-26T08:02:33;6.00;;;1.85;;
37288;SDS011;23174;49.462;11.000;2023-03-26T08:07:22;4.13;;;1.63;;
37288;SDS011;23174;49.462;11.000;2023-03-26T08:11:46;3.92;;;1.88;;
37288;SDS011;23174;49.462;11.000;2023-03-26T08:18:48;2.88;;;1.50;;
37288;SDS011;23174;49.462;11.000;2023-03-26T08:21:03;5.22;;;1.70;;
37288;SDS011;23174;49.462;11.000;2023-03-26T08:23:13;2.88;;;1.45;;
37288;SDS011;23174;49.462;11.000;2023-03-26T08:25:24;4.65;;;1.70;;
37288;SDS011;23174;49.462;11.000;2023-03-26T08:27:36;4.80;;;2.08;;
37288;SDS011;23174;49.462;11.000;2023-03-26T08:29:59;7.25;;;1.75;;
37288;SDS011;23174;49.462;11.000;2023-03-26T08:32:14;3.53;;;1.83;;
37288;SDS011;23174;49.462;11.000;2023-03-26T08:34:17;3.05;;;1.88;;
37288;SDS011;23174;49.462;11.000;2023-03-26T08:36:17;3.35;;;1.70;;
37288;SDS011;23174;49.462;11.000;2023-03-26T08:38:18;2.90;;;1.67;;
37288;SDS011;23174;49.462;11.000;2023-03-26T08:40:36;4.90;;;2.15;;
37288;SDS011;23174;49.462;11.000;2023-03-26T08:43:05;5.05;;;2.33;;
37288;SDS011;23174;49.462;11.000;2023-03-26T08:45:33;5.55;;;2.05;;
37288;SDS011;23174;49.462;11.000;2023-03-26T08:48:09;2.35;;;1.52;;
37288;SDS011;23174;49.462;11.000;2023-03-26T08:55:38;4.78;;;1.92;;
37288;SDS011;23174;49.462;11.000;2023-03-26T09:16:38;3.80;;;2.58;;
37288;SDS011;23174;49.462;11.000;2023-03-26T09:21:09;3.45;;;1.92;;
37288;SDS011;23174;49.462;11.000;2023-03-26T09:41:41;2.63;;;1.90;;
37288;SDS011;23174;49.462;11.000;2023-03-26T09:49:00;4.68;;;2.17;;
37288;SDS011;23174;49.462;11.000;2023-03-26T09:51:30;3.33;;;2.00;;
37288;SDS011;23174;49.462;11.000;2023-03-26T09:58:37;2.03;;;1.33;;
37288;SDS011;23174;49.462;11.000;2023-03-26T10:00:48;3.08;;;1.70;;
37288;SDS011;23174;49.462;11.000;2023-03-26T10:03:24;3.80;;;1.98;;
37288;SDS011;23174;49.462;11.000;2023-03-26T10:10:00;5.63;;;2.78;;
37288;SDS011;23174;49.462;11.000;2023-03-26T10:14:24;4.30;;;2.03;;
37288;SDS011;23174;49.462;11.000;2023-03-26T10:16:45;3.90;;;2.30;;
37288;SDS011;23174;49.462;11.000;2023-03-26T10:26:36;3.03;;;1.52;;
37288;SDS011;23174;49.462;11.000;2023-03-26T10:28:57;3.25;;;1.65;;
37288;SDS011;23174;49.462;11.000;2023-03-26T10:33:21;3.47;;;1.83;;
37288;SDS011;23174;49.462;11.000;2023-03-26T10:35:52;3.15;;;1.13;;
37288;SDS011;23174;49.462;11.000;2023-03-26T10:40:57;2.67;;;1.27;;
37288;SDS011;23174;49.462;11.000;2023-03-26T10:50:51;3.47;;;1.45;;
37288;SDS011;23174;49.462;11.000;2023-03-26T10:53:33;2.78;;;1.35;;
37288;SDS011;23174;49.462;11.000;2023-03-26T10:56:03;3.22;;;1.85;;
37288;SDS011;23174;49.462;11.000;2023-03-26T10:58:17;3.00;;;1.60;;
37288;SDS011;23174;49.462;11.000;2023-03-26T11:00:23;3.33;;;1.35;;
37288;SDS011;23174;49.462;11.000;2023-03-26T11:02:28;2.60;;;1.65;;
37288;SDS011;23174;49.462;11.000;2023-03-26T11:04:42;2.13;;;1.27;;
37288;SDS011;23174;49.462;11.000;2023-03-26T11:15:44;1.27;;;1.02;;
37288;SDS011;23174;49.462;11.000;2023-03-26T11:25:00;1.33;;;0.93;;
37288;SDS011;23174;49.462;11.000;2023-03-26T11:27:26;3.22;;;1.50;;
37288;SDS011;23174;49.462;11.000;2023-03-26T11:33:56;3.83;;;1.38;;
37288;SDS011;23174;49.462;11.000;2023-03-26T11:36:04;3.10;;;1.63;;
37288;SDS011;23174;49.462;11.000;2023-03-26T11:40:22;2.05;;;1.27;;
37288;SDS011;23174;49.462;11.000;2023-03-26T11:42:28;2.92;;;1.60;;
37288;SDS011;23174;49.462;11.000;2023-03-26T11:44:31;3.40;;;1.52;;
37288;SDS011;23174;49.462;11.000;2023-03-26T11:46:37;2.25;;;1.25;;
37288;SDS011;23174;49.462;11.000;2023-03-26T11:48:44;3.42;;;1.20;;
37288;SDS011;23174;49.462;11.000;2023-03-26T11:53:40;1.63;;;1.10;;
37288;SDS011;23174;49.462;11.000;2023-03-26T11:55:59;0.55;;;0.52;;
37288;SDS011;23174;49.462;11.000;2023-03-26T11:58:03;0.63;;;0.60;;
37288;SDS011;23174;49.462;11.000;2023-03-26T12:00:14;1.80;;;0.50;;
37288;SDS011;23174;49.462;11.000;2023-03-26T12:02:28;1.27;;;0.32;;
37288;SDS011;23174;49.462;11.000;2023-03-26T12:04:36;3.42;;;0.30;;
37288;SDS011;23174;49.462;11.000;2023-03-26T12:07:06;0.17;;;0.17;;
37288;SDS011;23174;49.462;11.000;2023-03-26T12:09:23;0.65;;;0.28;;
37288;SDS011;23174;49.462;11.000;2023-03-26T12:11:27;3.30;;;0.20;;
37288;SDS011;23174;49.462;11.000;2023-03-26T12:15:40;0.10;;;0.10;;
37288;SDS011;23174;49.462;11.000;2023-03-26T12:17:43;1.25;;;0.38;;
37288;SDS011;23174;49.462;11.000;2023-03-26T12:19:50;1.73;;;1.08;;
37288;SDS011;23174;49.462;11.000;2023-03-26T12:21:51;1.92;;;1.20;;
37288;SDS011;23174;49.462;11.000;2023-03-26T12:23:56;2.58;;;1.27;;
37288;SDS011;23174;49.462;11.000;2023-03-26T12:26:09;1.17;;;1.02;;
37288;SDS011;23174;49.462;11.000;2023-03-26T12:30:23;0.20;;;0.20;;
37288;SDS011;23174;49.462;11.000;2023-03-26T12:32:31;0.57;;;0.32;;
37288;SDS011;23174;49.462;11.000;2023-03-26T12:34:36;0.35;;;0.32;;
37288;SDS011;23174;49.462;11.000;2023-03-26T12:36:38;0.32;;;0.20;;
37288;SDS011;23174;49.462;11.000;2023-03-26T12:38:39;0.95;;;0.70;;
37288;SDS011;23174;49.462;11.000;2023-03-26T12:40:41;1.92;;;0.63;;
37288;SDS011;23174;49.462;11.000;2023-03-26T12:42:43;0.75;;;0.40;;
37288;SDS011;23174;49.462;11.000;2023-03-26T12:44:51;0.63;;;0.30;;
37288;SDS011;23174;49.462;11.000;2023-03-26T12:47:06;0.13;;;0.13;;
37288;SDS011;23174;49.462;11.000;2023-03-26T12:49:10;0.10;;;0.10;;
37288;SDS011;23174;49.462;11.000;2023-03-26T12:53:37;1.17;;;0.93;;
37288;SDS011;23174;49.462;11.000;2023-03-26T12:55:59;0.60;;;0.60;;
37288;SDS011;23174;49.462;11.000;2023-03-26T13:03:17;1.38;;;0.80;;
37288;SDS011;23174;49.462;11.000;2023-03-26T13:08:32;1.73;;;0.80;;
37288;SDS011;23174;49.462;11.000;2023-03-26T13:10:57;3.42;;;1.30;;
37288;SDS011;23174;49.462;11.000;2023-03-26T13:15:23;1.25;;;0.82;;
37288;SDS011;23174;49.462;11.000;2023-03-26T13:17:40;1.98;;;1.10;;
37288;SDS011;23174;49.462;11.000;2023-03-26T13:22:22;1.17;;;0.70;;
37288;SDS011;23174;49.462;11.000;2023-03-26T13:38:16;2.03;;;0.90;;
37288;SDS011;23174;49.462;11.000;2023-03-26T13:40:48;1.48;;;0.73;;
37288;SDS011;23174;49.462;11.000;2023-03-26T13:47:43;1.02;;;0.77;;
37288;SDS011;23174;49.462;11.000;2023-03-26T13:49:52;2.23;;;0.87;;
37288;SDS011;23174;49.462;11.000;2023-03-26T13:52:24;1.08;;;0.60;;
37288;SDS011;23174;49.462;11.000;2023-03-26T13:54:27;1.00;;;0.90;;
37288;SDS011;23174;49.462;11.000;2023-03-26T13:56:35;1.73;;;0.75;;
37288;SDS011;23174;49.462;11.000;2023-03-26T13:58:46;1.13;;;0.90;;
37288;SDS011;23174;49.462;11.000;2023-03-26T14:03:42;1.65;;;0.90;;
37288;SDS011;23174;49.462;11.000;2023-03-26T14:05:56;1.15;;;0.90;;
37288;SDS011;23174;49.462;11.000;2023-03-26T14:10:10;2.30;;;0.95;;
37288;SDS011;23174;49.462;11.000;2023-03-26T14:14:52;1.92;;;1.00;;
37288;SDS011;23174;49.462;11.000;2023-03-26T14:17:01;1.67;;;0.65;;
37288;SDS011;23174;49.462;11.000;2023-03-26T14:21:42;1.23;;;0.77;;
37288;SDS011;23174;49.462;11.000;2023-03-26T14:24:01;1.88;;;0.95;;
37288;SDS011;23174;49.462;11.000;2023-03-26T14:26:22;1.52;;;1.20;;
37288;SDS011;23174;49.462;11.000;2023-03-26T14:31:22;1.23;;;0.85;;
37288;SDS011;23174;49.462;11.000;2023-03-26T14:47:20;0.82;;;0.57;;
37288;SDS011;23174;49.462;11.000;2023-03-26T14:52:00;1.42;;;0.75;;
37288;SDS011;23174;49.462;11.000;2023-03-26T14:54:07;1.63;;;0.60;;
37288;SDS011;23174;49.462;11.000;2023-03-26T15:03:23;0.85;;;0.60;;
37288;SDS011;23174;49.462;11.000;2023-03-26T15:06:20;1.23;;;0.52;;
37288;SDS011;23174;49.462;11.000;2023-03-26T15:22:51;0.77;;;0.70;;
37288;SDS011;23174;49.462;11.000;2023-03-26T15:27:55;0.55;;;0.50;;
37288;SDS011;23174;49.462;11.000;2023-03-26T15:37:04;1.15;;;0.60;;
37288;SDS011;23174;49.462;11.000;2023-03-26T15:41:57;1.13;;;0.50;;
37288;SDS011;23174;49.462;11.000;2023-03-26T15:44:27;1.10;;;0.50;;
37288;SDS011;23174;49.462;11.000;2023-03-26T15:46:55;0.83;;;0.37;;
37288;SDS011;23174;49.462;11.000;2023-03-26T15:53:52;2.20;;;0.90;;
37288;SDS011;23174;49.462;11.000;2023-03-26T15:58:45;1.38;;;0.75;;
37288;SDS011;23174;49.462;11.000;2023-03-26T16:01:15;0.85;;;0.60;;
37288;SDS011;23174;49.462;11.000;2023-03-26T16:04:12;1.83;;;0.68;;
37288;SDS011;23174;49.462;11.000;2023-03-26T16:06:28;2.20;;;0.85;;
37288;SDS011;23174;49.462;11.000;2023-03-26T16:11:10;1.95;;;0.80;;
37288;SDS011;23174;49.462;11.000;2023-03-26T16:15:22;1.58;;;0.80;;
37288;SDS011;23174;49.462;11.000;2023-03-26T16:18:03;3.08;;;1.17;;
37288;SDS011;23174;49.462;11.000;2023-03-26T16:23:03;2.28;;;0.68;;
37288;SDS011;23174;49.462;11.000;2023-03-26T16:25:21;0.85;;;0.50;;
37288;SDS011;23174;49.462;11.000;2023-03-26T16:27:32;1.17;;;0.93;;
37288;SDS011;23174;49.462;11.000;2023-03-26T16:30:23;1.42;;;0.80;;
37288;SDS011;23174;49.462;11.000;2023-03-26T16:34:18;1.40;;;0.60;;
37288;SDS011;23174;49.462;11.000;2023-03-26T16:36:37;1.25;;;0.90;;
37288;SDS011;23174;49.462;11.000;2023-03-26T16:38:45;1.05;;;0.80;;
37288;SDS011;23174;49.462;11.000;2023-03-26T16:41:06;3.03;;;0.90;;
37288;SDS011;23174;49.462;11.000;2023-03-26T16:48:38;2.70;;;0.77;;
37288;SDS011;23174;49.462;11.000;2023-03-26T16:55:18;1.92;;;1.05;;
37288;SDS011;23174;49.462;11.000;2023-03-26T16:58:22;5.00;;;0.80;;
37288;SDS011;23174;49.462;11.000;2023-03-26T17:00:15;2.03;;;1.23;;